sensor_id;sensor_type;location;lat;lon;timestamp;pressure;altitude;pressure_sealevel;temperature;humidity
12676;BME280;63820;65.654;21.944;2023-01-29T00:02:05;99221.06;;;-0.61;100.00
12676;BME280;63820;65.654;21.944;2023-01-29T00:04:49;99222.63;;;-0.54;100.00
12676;BME280;63820;65.654;21.944;2023-01-29T00:07:33;99186.38;;;-0.72;100.00
12676;BME280;63820;65.654;21.944;2023-01-29T00:10:18;99221.88;;;-0.59;100.00
12676;BME280;63820;65.654;21.944;2023-01-29T00:13:02;99222.63;;;-0.54;100.00
12676;BME280;63820;65.654;21.944;2023-01-29T00:15:57;99212.25;;;-0.45;100.00
12676;BME280;63820;65.654;21.944;2023-01-29T00:18:41;99215.41;;;-0.32;100.00
12676;BME280;63820;65.654;21.944;2023-01-29T00:21:26;99223.84;;;-0.29;100.00
12676;BME280;63820;65.654;21.944;2023-01-29T00:24:11;99215.56;;;-0.40;100.00
12676;BME280;63820;65.654;21.944;2023-01-29T00:26:55;99211.91;;;-0.27;100.00
12676;BME280;63820;65.654;21.944;2023-01-29T00:29:39;99208.47;;;-0.26;100.00
12676;BME280;63820;65.654;21.944;2023-01-29T00:32:24;99201.69;;;-0.27;100.00
12676;BME280;63820;65.654;21.944;2023-01-29T00:35:08;99204.00;;;-0.16;100.00
12676;BME280;63820;65.654;21.944;2023-01-29T00:37:56;99194.75;;;-0.22;100.00
12676;BME280;63820;65.654;21.944;2023-01-29T00:40:41;99198.31;;;-0.29;100.00
12676;BME280;63820;65.654;21.944;2023-01-29T00:43:43;99189.06;;;-0.35;100.00
12676;BME280;63820;65.654;21.944;2023-01-29T00:46:47;99185.75;;;-0.40;100.00
12676;BME280;63820;65.654;21.944;2023-01-29T00:49:31;99192.75;;;-0.49;100.00
12676;BME280;63820;65.654;21.944;2023-01-29T00:52:16;99190.25;;;-0.52;100.00
12676;BME280;63820;65.654;21.944;2023-01-29T00:55:09;99188.13;;;-0.75;100.00
12676;BME280;63820;65.654;21.944;2023-01-29T00:57:54;99189.03;;;-0.78;100.00
12676;BME280;63820;65.654;21.944;2023-01-29T01:00:38;99187.50;;;-0.88;100.00
12676;BME280;63820;65.654;21.944;2023-01-29T01:03:22;99172.31;;;-0.94;100.00
12676;BME280;63820;65.654;21.944;2023-01-29T01:06:08;99179.50;;;-1.14;100.00
12676;BME280;63820;65.654;21.944;2023-01-29T01:08:52;99180.66;;;-1.32;100.00
12676;BME280;63820;65.654;21.944;2023-01-29T01:11:55;99181.78;;;-1.50;100.00
12676;BME280;63820;65.654;21.944;2023-01-29T01:14:39;99185.56;;;-1.75;100.00
12676;BME280;63820;65.654;21.944;2023-01-29T01:17:26;99186.63;;;-1.91;100.00
12676;BME280;63820;65.654;21.944;2023-01-29T01:20:11;99178.28;;;-2.01;100.00
12676;BME280;63820;65.654;21.944;2023-01-29T01:22:56;99186.72;;;-1.98;100.00
12676;BME280;63820;65.654;21.944;2023-01-29T01:25:40;99180.03;;;-2.05;100.00
12676;BME280;63820;65.654;21.944;2023-01-29T01:28:25;99182.31;;;-1.86;100.00
12676;BME280;63820;65.654;21.944;2023-01-29T01:31:11;99172.59;;;-1.61;100.00
12676;BME280;63820;65.654;21.944;2023-01-29T01:33:56;99178.31;;;-1.46;100.00
12676;BME280;63820;65.654;21.944;2023-01-29T01:36:40;99181.84;;;-1.54;100.00
12676;BME280;63820;65.654;21.944;2023-01-29T01:39:24;99183.50;;;-1.52;100.00
12676;BME280;63820;65.654;21.944;2023-01-29T01:42:12;99172.50;;;-1.55;100.00
12676;BME280;63820;65.654;21.944;2023-01-29T01:45:03;99188.66;;;-1.55;100.00
12676;BME280;63820;65.654;21.944;2023-01-29T01:47:53;99178.31;;;-1.46;100.00
12676;BME280;63820;65.654;21.944;2023-01-29T01:50:44;99183.50;;;-1.52;100.00
12676;BME280;63820;65.654;21.944;2023-01-29T01:53:42;99176.59;;;-1.44;100.00
12676;BME280;63820;65.654;21.944;2023-01-29T01:56:31;99173.38;;;-1.56;100.00
12676;BME280;63820;65.654;21.944;2023-01-29T01:59:22;99174.38;;;-1.67;100.00
12676;BME280;63820;65.654;21.944;2023-01-29T02:02:06;99172.09;;;-1.83;100.00
12676;BME280;63820;65.654;21.944;2023-01-29T02:05:10;99166.34;;;-1.98;100.00
12676;BME280;63820;65.654;21.944;2023-01-29T02:08:23;99163.91;;;-2.07;100.00
12676;BME280;63820;65.654;21.944;2023-01-29T02:11:29;99167.31;;;-2.06;100.00
12676;BME280;63820;65.654;21.944;2023-01-29T02:14:14;99171.69;;;-2.14;100.00
12676;BME280;63820;65.654;21.944;2023-01-29T02:17:00;99169.16;;;-2.16;100.00
12676;BME280;63820;65.654;21.944;2023-01-29T02:31:43;99156.13;;;-3.42;100.00
12676;BME280;63820;65.654;21.944;2023-01-29T02:34:47;99161.25;;;-3.46;100.00
12676;BME280;63820;65.654;21.944;2023-01-29T02:41:15;99153.88;;;-3.78;100.00
12676;BME280;63820;65.654;21.944;2023-01-29T02:49:47;99151.38;;;-3.83;100.00
12676;BME280;63820;65.654;21.944;2023-01-29T02:52:38;99145.31;;;-3.65;100.00
12676;BME280;63820;65.654;21.944;2023-01-29T02:58:30;99140.56;;;-3.11;100.00
12676;BME280;63820;65.654;21.944;2023-01-29T03:02:05;99137.84;;;-2.93;100.00
12676;BME280;63820;65.654;21.944;2023-01-29T03:04:30;99134.44;;;-2.92;100.00
12676;BME280;63820;65.654;21.944;2023-01-29T03:07:24;99124.91;;;-2.75;100.00
12676;BME280;63820;65.654;21.944;2023-01-29T03:10:34;99121.59;;;-2.81;100.00
12676;BME280;63820;65.654;21.944;2023-01-29T03:13:28;99115.66;;;-2.82;100.00
12676;BME280;63820;65.654;21.944;2023-01-29T03:16:20;99132.59;;;-2.79;100.00
12676;BME280;63820;65.654;21.944;2023-01-29T03:19:14;99126.50;;;-2.66;100.00
12676;BME280;63820;65.654;21.944;2023-01-29T03:22:01;99135.50;;;-2.39;100.00
12676;BME280;63820;65.654;21.944;2023-01-29T03:24:51;99136.97;;;-2.21;100.00
12676;BME280;63820;65.654;21.944;2023-01-29T03:27:58;99136.25;;;-2.29;100.00
12676;BME280;63820;65.654;21.944;2023-01-29T03:31:05;99130.13;;;-2.16;100.00
12676;BME280;63820;65.654;21.944;2023-01-29T03:34:17;99133.41;;;-2.10;100.00
12676;BME280;63820;65.654;21.944;2023-01-29T03:37:10;99126.78;;;-2.20;100.00
12676;BME280;63820;65.654;21.944;2023-01-29T03:39:58;99117.31;;;-2.12;100.00
12676;BME280;63820;65.654;21.944;2023-01-29T03:42:58;99117.22;;;-2.07;100.00
12676;BME280;63820;65.654;21.944;2023-01-29T03:49:05;99120.50;;;-1.99;100.00
12676;BME280;63820;65.654;21.944;2023-01-29T03:52:05;99122.97;;;-1.93;100.00
12676;BME280;63820;65.654;21.944;2023-01-29T03:55:14;99116.16;;;-1.92;100.00
12676;BME280;63820;65.654;21.944;2023-01-29T04:01:02;99119.34;;;-1.78;100.00
12676;BME280;63820;65.654;21.944;2023-01-29T04:04:18;99120.72;;;-1.59;100.00
12676;BME280;63820;65.654;21.944;2023-01-29T04:07:10;99121.22;;;-1.37;100.00
12676;BME280;63820;65.654;21.944;2023-01-29T04:10:00;99105.81;;;-1.31;100.00
12676;BME280;63820;65.654;21.944;2023-01-29T04:12:50;99101.47;;;-1.26;100.00
12676;BME280;63820;65.654;21.944;2023-01-29T04:15:42;99093.66;;;-1.17;100.00
12676;BME280;63820;65.654;21.944;2023-01-29T04:18:29;99092.81;;;-1.17;100.00
12676;BME280;63820;65.654;21.944;2023-01-29T04:21:14;99092.03;;;-1.21;100.00
12676;BME280;63820;65.654;21.944;2023-01-29T04:23:59;99088.63;;;-1.21;100.00
12676;BME280;63820;65.654;21.944;2023-01-29T04:27:13;99092.88;;;-1.20;100.00
12676;BME280;63820;65.654;21.944;2023-01-29T04:33:43;99097.63;;;-1.04;100.00
12676;BME280;63820;65.654;21.944;2023-01-29T04:42:41;99092.69;;;-1.11;100.00
12676;BME280;63820;65.654;21.944;2023-01-29T04:48:31;99091.91;;;-1.15;100.00
12676;BME280;63820;65.654;21.944;2023-01-29T04:51:24;99092.75;;;-1.14;100.00
12676;BME280;63820;65.654;21.944;2023-01-29T04:54:24;99089.84;;;-0.98;100.00
12676;BME280;63820;65.654;21.944;2023-01-29T04:57:18;99090.41;;;-0.82;100.00
12676;BME280;63820;65.654;21.944;2023-01-29T05:00:09;99088.66;;;-0.80;100.00
12676;BME280;63820;65.654;21.944;2023-01-29T05:02:58;99078.53;;;-0.84;100.00
12676;BME280;63820;65.654;21.944;2023-01-29T05:05:45;99093.69;;;-0.77;100.00
12676;BME280;63820;65.654;21.944;2023-01-29T05:08:31;99085.28;;;-0.82;100.00
12676;BME280;63820;65.654;21.944;2023-01-29T05:11:20;99085.22;;;-0.79;100.00
12676;BME280;63820;65.654;21.944;2023-01-29T05:14:07;99079.25;;;-0.78;100.00
12676;BME280;63820;65.654;21.944;2023-01-29T05:16:55;99083.63;;;-0.83;100.00
12676;BME280;63820;65.654;21.944;2023-01-29T05:19:41;99075.97;;;-0.83;100.00
12676;BME280;63820;65.654;21.944;2023-01-29T05:22:26;99069.28;;;-0.90;100.00
12676;BME280;63820;65.654;21.944;2023-01-29T05:25:21;99064.94;;;-0.85;100.00
12676;BME280;63820;65.654;21.944;2023-01-29T05:28:06;99063.50;;;-0.98;100.00
12676;BME280;63820;65.654;21.944;2023-01-29T05:30:54;99064.38;;;-0.99;100.00
12676;BME280;63820;65.654;21.944;2023-01-29T05:33:39;99058.47;;;-1.03;100.00
12676;BME280;63820;65.654;21.944;2023-01-29T05:36:23;99064.56;;;-1.08;100.00
12676;BME280;63820;65.654;21.944;2023-01-29T05:39:10;99055.34;;;-1.15;100.00
12676;BME280;63820;65.654;21.944;2023-01-29T05:41:54;99031.69;;;-1.23;100.00
12676;BME280;63820;65.654;21.944;2023-01-29T05:44:38;99054.19;;;-1.01;100.00
12676;BME280;63820;65.654;21.944;2023-01-29T05:47:23;99050.75;;;-1.00;100.00
12676;BME280;63820;65.654;21.944;2023-01-29T05:50:07;99058.44;;;-1.01;100.00
12676;BME280;63820;65.654;21.944;2023-01-29T05:52:56;99060.88;;;-0.95;100.00
12676;BME280;63820;65.654;21.944;2023-01-29T05:55:47;99053.34;;;-1.01;100.00
12676;BME280;63820;65.654;21.944;2023-01-29T05:58:32;99050.94;;;-1.07;100.00
12676;BME280;63820;65.654;21.944;2023-01-29T06:01:22;99053.66;;;-1.15;100.00
12676;BME280;63820;65.654;21.944;2023-01-29T06:04:08;99052.09;;;-1.23;100.00
12676;BME280;63820;65.654;21.944;2023-01-29T06:06:52;99054.75;;;-1.28;100.00
12676;BME280;63820;65.654;21.944;2023-01-29T06:09:36;99045.44;;;-1.30;100.00
12676;BME280;63820;65.654;21.944;2023-01-29T06:12:20;99033.50;;;-1.28;100.00
12676;BME280;63820;65.654;21.944;2023-01-29T06:15:05;99031.88;;;-1.33;100.00
12676;BME280;63820;65.654;21.944;2023-01-29T06:17:49;99031.03;;;-1.33;100.00
12676;BME280;63820;65.654;21.944;2023-01-29T06:20:34;99028.59;;;-1.39;100.00
12676;BME280;63820;65.654;21.944;2023-01-29T06:23:18;99033.75;;;-1.42;100.00
12676;BME280;63820;65.654;21.944;2023-01-29T06:26:06;99033.78;;;-1.44;100.00
12676;BME280;63820;65.654;21.944;2023-01-29T06:28:51;99022.06;;;-1.54;100.00
12676;BME280;63820;65.654;21.944;2023-01-29T06:31:35;99027.97;;;-1.52;100.00
12676;BME280;63820;65.654;21.944;2023-01-29T06:34:19;99027.06;;;-1.48;100.00
12676;BME280;63820;65.654;21.944;2023-01-29T06:37:03;99017.72;;;-1.49;100.00
12676;BME280;63820;65.654;21.944;2023-01-29T06:39:47;99025.38;;;-1.49;100.00
12676;BME280;63820;65.654;21.944;2023-01-29T06:42:34;99024.63;;;-1.55;100.00
12676;BME280;63820;65.654;21.944;2023-01-29T06:45:18;99021.13;;;-1.50;100.00
12676;BME280;63820;65.654;21.944;2023-01-29T06:48:02;99016.06;;;-1.51;100.00
12676;BME280;63820;65.654;21.944;2023-01-29T06:50:47;99016.91;;;-1.51;100.00
12676;BME280;63820;65.654;21.944;2023-01-29T06:53:33;99015.13;;;-1.46;100.00
12676;BME280;63820;65.654;21.944;2023-01-29T06:56:18;99016.44;;;-1.26;100.00
12676;BME280;63820;65.654;21.944;2023-01-29T06:59:03;99008.00;;;-1.28;100.00
12676;BME280;63820;65.654;21.944;2023-01-29T07:01:47;99004.50;;;-1.24;100.00
12676;BME280;63820;65.654;21.944;2023-01-29T07:04:31;98979.03;;;-1.26;100.00
12676;BME280;63820;65.654;21.944;2023-01-29T07:07:15;98995.88;;;-1.17;100.00
12676;BME280;63820;65.654;21.944;2023-01-29T07:10:00;98990.75;;;-1.17;100.00
12676;BME280;63820;65.654;21.944;2023-01-29T07:12:44;98990.63;;;-1.11;100.00
12676;BME280;63820;65.654;21.944;2023-01-29T07:15:28;98995.53;;;-1.02;100.00
12676;BME280;63820;65.654;21.944;2023-01-29T07:18:12;98984.31;;;-0.95;100.00
12676;BME280;63820;65.654;21.944;2023-01-29T07:20:57;98983.28;;;-0.86;100.00
12676;BME280;63820;65.654;21.944;2023-01-29T07:23:41;98981.31;;;-0.74;100.00
12676;BME280;63820;65.654;21.944;2023-01-29T07:26:25;98958.56;;;-0.84;100.00
12676;BME280;63820;65.654;21.944;2023-01-29T07:29:10;98954.25;;;-0.81;100.00
12676;BME280;63820;65.654;21.944;2023-01-29T07:31:54;98943.22;;;-0.83;100.00
12676;BME280;63820;65.654;21.944;2023-01-29T07:34:38;98955.91;;;-0.80;100.00
12676;BME280;63820;65.654;21.944;2023-01-29T07:37:22;98963.31;;;-0.68;100.00
12676;BME280;63820;65.654;21.944;2023-01-29T07:40:06;98961.63;;;-0.69;100.00
12676;BME280;63820;65.654;21.944;2023-01-29T07:43:01;98955.78;;;-0.74;100.00
12676;BME280;63820;65.654;21.944;2023-01-29T07:45:46;98962.56;;;-0.73;100.00
12676;BME280;63820;65.654;21.944;2023-01-29T07:48:31;98952.50;;;-0.79;100.00
12676;BME280;63820;65.654;21.944;2023-01-29T07:51:14;98951.75;;;-0.84;100.00
12676;BME280;63820;65.654;21.944;2023-01-29T07:54:00;98956.06;;;-0.86;100.00
12676;BME280;63820;65.654;21.944;2023-01-29T07:56:45;98965.34;;;-0.83;100.00
12676;BME280;63820;65.654;21.944;2023-01-29T07:59:29;98949.41;;;-0.93;100.00
12676;BME280;63820;65.654;21.944;2023-01-29T08:02:14;98954.47;;;-0.91;100.00
12676;BME280;63820;65.654;21.944;2023-01-29T08:04:58;98954.38;;;-0.87;100.00
12676;BME280;63820;65.654;21.944;2023-01-29T08:07:42;98947.66;;;-0.91;100.00
12676;BME280;63820;65.654;21.944;2023-01-29T08:10:26;98943.41;;;-0.90;100.00
12676;BME280;63820;65.654;21.944;2023-01-29T08:13:11;98938.25;;;-0.89;100.00
12676;BME280;63820;65.654;21.944;2023-01-29T08:15:59;98944.22;;;-0.90;100.00
12676;BME280;63820;65.654;21.944;2023-01-29T08:18:43;98941.47;;;-0.81;100.00
12676;BME280;63820;65.654;21.944;2023-01-29T08:21:30;98952.50;;;-0.79;100.00
12676;BME280;63820;65.654;21.944;2023-01-29T08:24:14;98928.72;;;-0.81;100.00
12676;BME280;63820;65.654;21.944;2023-01-29T08:26:59;98939.41;;;-0.65;100.00
12676;BME280;63820;65.654;21.944;2023-01-29T08:29:43;98909.72;;;-0.69;100.00
12676;BME280;63820;65.654;21.944;2023-01-29T08:32:27;98917.88;;;-0.53;100.00
12676;BME280;63820;65.654;21.944;2023-01-29T08:35:11;98926.91;;;-0.40;100.00
12676;BME280;63820;65.654;21.944;2023-01-29T08:37:58;98933.75;;;-0.41;100.00
12676;BME280;63820;65.654;21.944;2023-01-29T08:40:42;98931.06;;;-0.36;100.00
12676;BME280;63820;65.654;21.944;2023-01-29T08:43:27;98922.72;;;-0.43;100.00
12676;BME280;63820;65.654;21.944;2023-01-29T08:46:11;98921.06;;;-0.45;100.00
12676;BME280;63820;65.654;21.944;2023-01-29T08:48:55;98899.97;;;-0.52;100.00
12676;BME280;63820;65.654;21.944;2023-01-29T08:51:40;98915.91;;;-0.42;100.00
12676;BME280;63820;65.654;21.944;2023-01-29T08:54:24;98912.31;;;-0.35;100.00
12676;BME280;63820;65.654;21.944;2023-01-29T08:57:08;98914.78;;;-0.32;100.00
12676;BME280;63820;65.654;21.944;2023-01-29T08:59:52;98910.25;;;-0.21;100.00
12676;BME280;63820;65.654;21.944;2023-01-29T09:02:36;98909.34;;;-0.18;100.00
12676;BME280;63820;65.654;21.944;2023-01-29T09:05:21;98887.00;;;-0.10;100.00
12676;BME280;63820;65.654;21.944;2023-01-29T09:08:06;98914.44;;;0.14;100.00
12676;BME280;63820;65.654;21.944;2023-01-29T09:10:50;98896.69;;;0.08;100.00
12676;BME280;63820;65.654;21.944;2023-01-29T09:13:34;98900.44;;;0.27;100.00
12676;BME280;63820;65.654;21.944;2023-01-29T09:16:19;98911.31;;;0.36;100.00
12676;BME280;63820;65.654;21.944;2023-01-29T09:19:03;98898.22;;;0.46;100.00
12676;BME280;63820;65.654;21.944;2023-01-29T09:21:48;98903.03;;;0.57;100.00
12676;BME280;63820;65.654;21.944;2023-01-29T09:24:32;98892.94;;;0.52;100.00
12676;BME280;63820;65.654;21.944;2023-01-29T09:27:18;98884.13;;;0.62;100.00
12676;BME280;63820;65.654;21.944;2023-01-29T09:30:04;98888.69;;;0.81;100.00
12676;BME280;63820;65.654;21.944;2023-01-29T09:32:48;98874.22;;;0.80;100.00
12676;BME280;63820;65.654;21.944;2023-01-29T09:35:33;98883.59;;;1.07;100.00
12676;BME280;63820;65.654;21.944;2023-01-29T09:38:17;98867.84;;;0.93;100.00
12676;BME280;63820;65.654;21.944;2023-01-29T09:41:18;98858.41;;;0.95;100.00
12676;BME280;63820;65.654;21.944;2023-01-29T09:44:21;98870.44;;;1.19;100.00
12676;BME280;63820;65.654;21.944;2023-01-29T09:47:13;98874.38;;;1.03;100.00
12676;BME280;63820;65.654;21.944;2023-01-29T09:50:03;98858.66;;;1.14;100.00
12676;BME280;63820;65.654;21.944;2023-01-29T09:55:44;98853.69;;;1.62;100.00
12676;BME280;63820;65.654;21.944;2023-01-29T09:58:34;98831.59;;;1.58;100.00
12676;BME280;63820;65.654;21.944;2023-01-29T10:01:32;98835.53;;;1.68;100.00
12676;BME280;63820;65.654;21.944;2023-01-29T10:04:50;98834.00;;;1.62;100.00
12676;BME280;63820;65.654;21.944;2023-01-29T10:17:25;98807.44;;;1.65;100.00
12676;BME280;63820;65.654;21.944;2023-01-29T10:23:25;98783.69;;;1.60;100.00
12676;BME280;63820;65.654;21.944;2023-01-29T10:26:11;98781.34;;;1.54;100.00
12676;BME280;63820;65.654;21.944;2023-01-29T10:28:56;98774.22;;;1.62;100.00
12676;BME280;63820;65.654;21.944;2023-01-29T10:31:43;98774.06;;;1.42;100.00
12676;BME280;63820;65.654;21.944;2023-01-29T10:34:37;98764.34;;;1.26;100.00
12676;BME280;63820;65.654;21.944;2023-01-29T10:37:33;98745.34;;;1.07;100.00
12676;BME280;63820;65.654;21.944;2023-01-29T10:40:32;98729.53;;;0.96;100.00
12676;BME280;63820;65.654;21.944;2023-01-29T10:43:28;98750.00;;;0.96;100.00
12676;BME280;63820;65.654;21.944;2023-01-29T10:53:24;98736.97;;;0.77;100.00
12676;BME280;63820;65.654;21.944;2023-01-29T10:58:59;98718.38;;;0.72;100.00
12676;BME280;63820;65.654;21.944;2023-01-29T11:01:46;98704.53;;;0.78;100.00
12676;BME280;63820;65.654;21.944;2023-01-29T11:04:31;98692.88;;;1.44;100.00
12676;BME280;63820;65.654;21.944;2023-01-29T11:07:18;98700.03;;;2.49;100.00
12676;BME280;63820;65.654;21.944;2023-01-29T11:10:13;98704.50;;;2.44;100.00
12676;BME280;63820;65.654;21.944;2023-01-29T11:13:01;98672.31;;;2.57;98.63
12676;BME280;63820;65.654;21.944;2023-01-29T11:15:50;98689.03;;;2.68;97.57
12676;BME280;63820;65.654;21.944;2023-01-29T11:19:11;98677.47;;;4.33;93.16
12676;BME280;63820;65.654;21.944;2023-01-29T11:21:57;98675.63;;;5.88;77.27
12676;BME280;63820;65.654;21.944;2023-01-29T11:24:42;98667.22;;;8.07;69.03
12676;BME280;63820;65.654;21.944;2023-01-29T11:27:27;98640.28;;;9.29;58.09
12676;BME280;63820;65.654;21.944;2023-01-29T11:30:31;98658.50;;;10.40;53.28
12676;BME280;63820;65.654;21.944;2023-01-29T11:33:21;98656.19;;;11.63;52.24
12676;BME280;63820;65.654;21.944;2023-01-29T11:36:36;98646.00;;;10.80;49.79
12676;BME280;63820;65.654;21.944;2023-01-29T11:39:25;98646.84;;;10.92;48.93
12676;BME280;63820;65.654;21.944;2023-01-29T11:42:18;98625.28;;;12.14;48.46
12676;BME280;63820;65.654;21.944;2023-01-29T11:45:26;98624.00;;;11.86;46.20
12676;BME280;63820;65.654;21.944;2023-01-29T11:48:17;98626.00;;;11.27;45.96
12676;BME280;63820;65.654;21.944;2023-01-29T11:51:10;98616.91;;;9.54;48.87
12676;BME280;63820;65.654;21.944;2023-01-29T11:54:01;98613.53;;;9.15;51.25
12676;BME280;63820;65.654;21.944;2023-01-29T11:56:46;98606.34;;;9.06;51.15
12676;BME280;63820;65.654;21.944;2023-01-29T11:59:40;98605.97;;;7.79;53.64
12676;BME280;63820;65.654;21.944;2023-01-29T12:02:37;98593.03;;;7.65;54.06
12676;BME280;63820;65.654;21.944;2023-01-29T12:05:25;98591.91;;;5.94;58.08
12676;BME280;63820;65.654;21.944;2023-01-29T12:08:16;98588.13;;;6.45;57.15
12676;BME280;63820;65.654;21.944;2023-01-29T12:11:22;98593.66;;;6.39;57.54
12676;BME280;63820;65.654;21.944;2023-01-29T12:14:32;98579.75;;;4.14;65.30
12676;BME280;63820;65.654;21.944;2023-01-29T12:17:20;98594.56;;;2.55;73.35
12676;BME280;63820;65.654;21.944;2023-01-29T12:20:13;98586.91;;;1.46;86.46
12676;BME280;63820;65.654;21.944;2023-01-29T12:26:34;98571.66;;;0.96;96.67
12676;BME280;63820;65.654;21.944;2023-01-29T12:32:47;98570.84;;;0.46;94.81
12676;BME280;63820;65.654;21.944;2023-01-29T12:35:45;98583.94;;;0.11;100.00
12676;BME280;63820;65.654;21.944;2023-01-29T12:38:34;98586.75;;;-0.25;100.00
12676;BME280;63820;65.654;21.944;2023-01-29T12:41:40;98581.84;;;-0.60;100.00
12676;BME280;63820;65.654;21.944;2023-01-29T12:44:34;98572.09;;;-0.76;100.00
12676;BME280;63820;65.654;21.944;2023-01-29T12:47:41;98562.75;;;-0.77;100.00
12676;BME280;63820;65.654;21.944;2023-01-29T12:50:35;98555.94;;;-0.76;100.00
12676;BME280;63820;65.654;21.944;2023-01-29T12:53:30;98560.91;;;-0.72;100.00
12676;BME280;63820;65.654;21.944;2023-01-29T12:56:25;98538.50;;;-0.91;100.00
12676;BME280;63820;65.654;21.944;2023-01-29T12:59:42;98573.47;;;-0.95;100.00
12676;BME280;63820;65.654;21.944;2023-01-29T13:02:33;98560.00;;;-1.00;100.00
12676;BME280;63820;65.654;21.944;2023-01-29T13:05:26;98563.56;;;-1.04;100.00
12676;BME280;63820;65.654;21.944;2023-01-29T13:08:44;98549.72;;;-0.97;100.00
12676;BME280;63820;65.654;21.944;2023-01-29T13:11:36;98546.69;;;-1.10;100.00
12676;BME280;63820;65.654;21.944;2023-01-29T13:14:50;98540.72;;;-1.09;100.00
12676;BME280;63820;65.654;21.944;2023-01-29T13:17:43;98546.03;;;-1.16;100.00
12676;BME280;63820;65.654;21.944;2023-01-29T13:20:31;98546.44;;;-1.32;100.00
12676;BME280;63820;65.654;21.944;2023-01-29T13:23:23;98543.81;;;-1.61;100.00
12676;BME280;63820;65.654;21.944;2023-01-29T13:26:10;98539.09;;;-1.76;100.00
12676;BME280;63820;65.654;21.944;2023-01-29T13:28:56;98523.16;;;-1.84;100.00
12676;BME280;63820;65.654;21.944;2023-01-29T13:31:46;98520.53;;;-1.81;100.00
12676;BME280;63820;65.654;21.944;2023-01-29T13:34:41;98498.47;;;-2.15;100.00
12676;BME280;63820;65.654;21.944;2023-01-29T13:37:35;98501.28;;;-2.25;100.00
12676;BME280;63820;65.654;21.944;2023-01-29T13:40:27;98489.13;;;-2.50;100.00
12676;BME280;63820;65.654;21.944;2023-01-29T13:43:19;98477.00;;;-2.77;100.00
12676;BME280;63820;65.654;21.944;2023-01-29T13:46:10;98477.25;;;-2.88;100.00
12676;BME280;63820;65.654;21.944;2023-01-29T13:48:55;98469.88;;;-3.00;100.00
12676;BME280;63820;65.654;21.944;2023-01-29T13:51:43;98448.06;;;-3.10;100.00
12676;BME280;63820;65.654;21.944;2023-01-29T13:54:28;98441.66;;;-3.26;100.00
12676;BME280;63820;65.654;21.944;2023-01-29T14:05:57;98444.16;;;-3.25;100.00
12676;BME280;63820;65.654;21.944;2023-01-29T14:08:44;98435.81;;;-3.30;100.00
12676;BME280;63820;65.654;21.944;2023-01-29T14:11:34;98427.44;;;-3.35;100.00
12676;BME280;63820;65.654;21.944;2023-01-29T14:17:37;98413.06;;;-3.79;100.00
12676;BME280;63820;65.654;21.944;2023-01-29T14:20:36;98424.22;;;-3.86;100.00
12676;BME280;63820;65.654;21.944;2023-01-29T14:29:23;98391.72;;;-4.14;100.00
12676;BME280;63820;65.654;21.944;2023-01-29T14:32:17;98393.38;;;-4.13;100.00
12676;BME280;63820;65.654;21.944;2023-01-29T14:35:15;98364.44;;;-4.04;100.00
12676;BME280;63820;65.654;21.944;2023-01-29T14:38:04;98376.25;;;-4.02;100.00
12676;BME280;63820;65.654;21.944;2023-01-29T14:40:49;98371.94;;;-3.98;100.00
12676;BME280;63820;65.654;21.944;2023-01-29T14:43:34;98341.81;;;-4.15;100.00
12676;BME280;63820;65.654;21.944;2023-01-29T14:49:47;98367.66;;;-3.53;100.00
12676;BME280;63820;65.654;21.944;2023-01-29T14:52:41;98367.66;;;-3.53;100.00
12676;BME280;63820;65.654;21.944;2023-01-29T14:55:29;98357.09;;;-3.35;100.00
12676;BME280;63820;65.654;21.944;2023-01-29T15:01:32;98359.38;;;-3.22;100.00
12676;BME280;63820;65.654;21.944;2023-01-29T15:04:50;98351.28;;;-3.03;100.00
12676;BME280;63820;65.654;21.944;2023-01-29T15:07:41;98324.13;;;-3.02;100.00
12676;BME280;63820;65.654;21.944;2023-01-29T15:10:35;98336.56;;;-2.90;100.00
12676;BME280;63820;65.654;21.944;2023-01-29T15:13:31;98314.31;;;-2.82;100.00
12676;BME280;63820;65.654;21.944;2023-01-29T15:16:21;98296.50;;;-2.82;100.00
12676;BME280;63820;65.654;21.944;2023-01-29T15:19:16;98294.00;;;-2.83;100.00
12676;BME280;63820;65.654;21.944;2023-01-29T15:22:05;98288.03;;;-2.82;100.00
12676;BME280;63820;65.654;21.944;2023-01-29T15:27:51;98266.06;;;-2.85;100.00
12676;BME280;63820;65.654;21.944;2023-01-29T15:30:39;98272.06;;;-2.87;100.00
12676;BME280;63820;65.654;21.944;2023-01-29T15:33:26;98257.63;;;-2.87;100.00
12676;BME280;63820;65.654;21.944;2023-01-29T15:36:25;98246.56;;;-2.84;100.00
12676;BME280;63820;65.654;21.944;2023-01-29T15:39:14;98251.94;;;-2.97;100.00
12676;BME280;63820;65.654;21.944;2023-01-29T15:42:13;98244.50;;;-3.04;100.00
12676;BME280;63820;65.654;21.944;2023-01-29T15:45:31;98230.72;;;-2.96;100.00
12676;BME280;63820;65.654;21.944;2023-01-29T15:48:18;98193.72;;;-3.07;100.00
12676;BME280;63820;65.654;21.944;2023-01-29T15:51:09;98199.09;;;-2.85;100.00
12676;BME280;63820;65.654;21.944;2023-01-29T15:54:03;98180.22;;;-2.77;100.00
12676;BME280;63820;65.654;21.944;2023-01-29T15:56:51;98152.41;;;-2.83;100.00
12676;BME280;63820;65.654;21.944;2023-01-29T15:59:43;98180.34;;;-2.81;100.00
12676;BME280;63820;65.654;21.944;2023-01-29T16:05:20;98160.16;;;-2.87;100.00
12676;BME280;63820;65.654;21.944;2023-01-29T16:08:11;98141.81;;;-2.68;100.00
12676;BME280;63820;65.654;21.944;2023-01-29T16:10:59;98127.34;;;-2.66;100.00
12676;BME280;63820;65.654;21.944;2023-01-29T16:13:47;98140.13;;;-2.69;100.00
12676;BME280;63820;65.654;21.944;2023-01-29T16:16:32;98128.81;;;-2.88;100.00
12676;BME280;63820;65.654;21.944;2023-01-29T16:22:05;98123.88;;;-2.63;100.00
12676;BME280;63820;65.654;21.944;2023-01-29T16:24:51;98121.53;;;-2.71;100.00
12676;BME280;63820;65.654;21.944;2023-01-29T16:27:36;98108.16;;;-2.77;100.00
12676;BME280;63820;65.654;21.944;2023-01-29T16:30:24;98084.91;;;-2.94;100.00